createdAt,value
2023-05-18T00:02:21.016Z,5.05
2023-05-18T00:04:48.115Z,5.00
2023-05-18T00:07:15.779Z,5.50
2023-05-18T00:09:42.598Z,4.80
2023-05-18T00:12:12.048Z,5.30
2023-05-18T00:14:38.846Z,4.85
2023-05-18T00:17:05.740Z,4.82
2023-05-18T00:19:32.539Z,4.78
2023-05-18T00:21:59.367Z,4.75
2023-05-18T00:24:26.112Z,4.90
2023-05-18T00:26:52.860Z,5.07
2023-05-18T00:29:19.760Z,5.30
2023-05-18T00:31:46.543Z,4.63
2023-05-18T00:34:14.832Z,5.25
2023-05-18T00:36:41.973Z,4.80
2023-05-18T00:39:09.583Z,4.82
2023-05-18T00:41:36.687Z,5.15
2023-05-18T00:44:05.002Z,5.20
2023-05-18T00:46:32.317Z,5.10
2023-05-18T00:49:01.581Z,4.95
2023-05-18T00:51:29.193Z,5.00
2023-05-18T00:53:56.741Z,5.38
2023-05-18T00:56:25.009Z,5.30
2023-05-18T00:58:57.620Z,4.82
2023-05-18T01:01:34.681Z,5.10
2023-05-18T01:04:03.217Z,5.10
2023-05-18T01:06:35.630Z,5.38
2023-05-18T01:09:04.445Z,6.00
2023-05-18T01:11:57.080Z,5.72
2023-05-18T01:14:34.316Z,5.32
2023-05-18T01:17:23.751Z,6.78
2023-05-18T01:19:50.531Z,6.18
2023-05-18T01:22:35.209Z,6.47
2023-05-18T01:25:24.244Z,6.40
2023-05-18T01:27:56.127Z,6.43
2023-05-18T01:30:22.993Z,7.18
2023-05-18T01:32:49.879Z,7.07
2023-05-18T01:35:16.750Z,7.50
2023-05-18T01:37:43.491Z,7.65
2023-05-18T01:40:10.660Z,8.05
2023-05-18T01:42:43.952Z,7.47
2023-05-18T01:45:18.574Z,7.57
2023-05-18T01:47:48.223Z,7.47
2023-05-18T01:50:22.495Z,8.77
2023-05-18T01:52:54.137Z,9.98
2023-05-18T01:55:22.995Z,10.10
2023-05-18T01:57:52.619Z,9.95
2023-05-18T02:00:20.204Z,8.95
2023-05-18T02:02:47.496Z,9.32
2023-05-18T02:05:14.532Z,9.85
2023-05-18T02:07:44.085Z,9.68
2023-05-18T02:10:11.627Z,10.57
2023-05-18T02:12:38.407Z,11.02
2023-05-18T02:15:06.367Z,10.65
2023-05-18T02:17:33.778Z,10.52
2023-05-18T02:20:00.665Z,11.05
2023-05-18T02:22:27.483Z,11.35
2023-05-18T02:24:54.187Z,10.85
2023-05-18T02:27:21.171Z,10.25
2023-05-18T02:29:47.903Z,10.13
2023-05-18T02:32:14.802Z,10.57
2023-05-18T02:34:42.492Z,10.93
2023-05-18T02:37:09.403Z,11.02
2023-05-18T02:39:36.095Z,10.90
2023-05-18T02:42:02.973Z,11.05
2023-05-18T02:44:29.859Z,11.07
2023-05-18T02:46:56.989Z,10.52
2023-05-18T02:49:23.807Z,10.25
2023-05-18T02:51:50.516Z,10.20
2023-05-18T02:54:17.238Z,9.98
2023-05-18T02:56:44.037Z,10.13
2023-05-18T02:59:11.503Z,11.60
2023-05-18T03:01:41.043Z,10.93
2023-05-18T03:04:08.035Z,9.85
2023-05-18T03:06:36.181Z,10.88
2023-05-18T03:09:03.027Z,11.98
2023-05-18T03:11:29.833Z,10.77
2023-05-18T03:13:56.614Z,11.27
2023-05-18T03:16:28.233Z,11.43
2023-05-18T03:18:58.805Z,12.00
2023-05-18T03:21:25.784Z,12.18
2023-05-18T03:23:52.500Z,12.40
2023-05-18T03:26:19.447Z,12.57
2023-05-18T03:28:46.343Z,12.98
2023-05-18T03:31:13.104Z,12.50
2023-05-18T03:33:39.941Z,13.35
2023-05-18T03:36:07.165Z,13.43
2023-05-18T03:38:34.063Z,12.70
2023-05-18T03:41:00.888Z,13.18
2023-05-18T03:43:29.560Z,13.85
2023-05-18T03:45:56.659Z,12.68
2023-05-18T03:48:24.718Z,13.30
2023-05-18T03:50:51.621Z,14.07
2023-05-18T03:53:19.199Z,13.02
2023-05-18T03:55:46.642Z,13.38
2023-05-18T03:58:13.567Z,14.63
2023-05-18T04:00:40.701Z,14.55
2023-05-18T04:03:07.691Z,14.57
2023-05-18T04:05:34.505Z,14.82
2023-05-18T04:08:01.345Z,14.55
2023-05-18T04:10:28.153Z,15.45
2023-05-18T04:12:54.842Z,15.93
2023-05-18T04:15:21.650Z,15.25
2023-05-18T04:17:51.476Z,14.77
2023-05-18T04:20:18.736Z,15.45
2023-05-18T04:22:48.207Z,16.13
2023-05-18T04:25:15.894Z,15.38
2023-05-18T04:27:45.247Z,14.88
2023-05-18T04:30:13.297Z,15.82
2023-05-18T04:32:42.890Z,15.95
2023-05-18T04:35:11.512Z,15.32
2023-05-18T04:37:41.624Z,15.65
2023-05-18T04:40:17.570Z,16.15
2023-05-18T04:42:47.737Z,16.05
2023-05-18T04:45:16.676Z,16.40
2023-05-18T04:47:47.889Z,15.85
2023-05-18T04:50:18.490Z,17.23
2023-05-18T04:52:49.017Z,15.75
2023-05-18T04:55:26.509Z,16.48
2023-05-18T04:57:56.668Z,15.77
2023-05-18T05:00:24.886Z,16.17
2023-05-18T05:02:52.066Z,16.05
2023-05-18T05:05:19.081Z,15.32
2023-05-18T05:07:45.870Z,15.57
2023-05-18T05:10:12.972Z,15.93
2023-05-18T05:12:41.600Z,15.73
2023-05-18T05:15:09.666Z,17.00
2023-05-18T05:17:36.732Z,14.10
2023-05-18T05:20:03.854Z,14.82
2023-05-18T05:22:30.590Z,15.27
2023-05-18T05:24:57.416Z,15.38
2023-05-18T05:27:26.455Z,15.45
2023-05-18T05:29:53.369Z,15.25
2023-05-18T05:32:20.175Z,15.00
2023-05-18T05:34:48.132Z,15.80
2023-05-18T05:37:14.902Z,15.05
2023-05-18T05:39:41.756Z,14.70
2023-05-18T05:42:11.461Z,13.00
2023-05-18T05:44:39.358Z,10.88
2023-05-18T05:47:06.638Z,9.80
2023-05-18T05:49:33.539Z,8.35
2023-05-18T05:52:00.714Z,7.88
2023-05-18T05:54:27.556Z,7.30
2023-05-18T05:56:54.424Z,6.30
2023-05-18T05:59:22.355Z,5.97
2023-05-18T06:01:49.208Z,6.20
2023-05-18T06:04:16.187Z,5.95
2023-05-18T06:06:43.919Z,5.65
2023-05-18T06:09:10.996Z,5.70
2023-05-18T06:11:38.222Z,6.00
2023-05-18T06:14:05.214Z,6.05
2023-05-18T06:16:32.082Z,6.07
2023-05-18T06:18:59.042Z,5.80
2023-05-18T06:21:25.929Z,5.32
2023-05-18T06:23:52.650Z,5.32
2023-05-18T06:26:19.491Z,4.90
2023-05-18T06:28:46.258Z,5.30
2023-05-18T06:31:13.012Z,5.57
2023-05-18T06:33:40.090Z,5.22
2023-05-18T06:36:06.968Z,5.22
2023-05-18T06:38:33.730Z,5.20
2023-05-18T06:41:00.573Z,5.03
2023-05-18T06:43:28.424Z,4.85
2023-05-18T06:45:56.192Z,5.32
2023-05-18T06:48:26.206Z,5.00
2023-05-18T06:50:53.133Z,4.85
2023-05-18T06:53:19.871Z,5.38
2023-05-18T06:55:47.247Z,5.60
2023-05-18T06:58:14.016Z,5.35
2023-05-18T07:00:41.077Z,5.75
2023-05-18T07:03:08.468Z,5.38
2023-05-18T07:05:39.169Z,5.40
2023-05-18T07:08:07.343Z,6.65
2023-05-18T07:10:36.044Z,5.53
2023-05-18T07:13:02.867Z,6.00
2023-05-18T07:15:30.156Z,6.13
2023-05-18T07:17:57.512Z,5.20
2023-05-18T07:20:26.321Z,5.00
2023-05-18T07:22:55.287Z,4.85
2023-05-18T07:25:22.904Z,5.30
2023-05-18T07:27:52.089Z,4.72
2023-05-18T07:30:18.931Z,4.13
2023-05-18T07:32:46.065Z,4.72
2023-05-18T07:35:13.199Z,4.53
2023-05-18T07:37:40.018Z,5.03
2023-05-18T07:40:09.795Z,5.10
2023-05-18T07:42:36.649Z,4.78
2023-05-18T07:45:03.720Z,4.90
2023-05-18T07:47:30.532Z,5.30
2023-05-18T07:49:57.337Z,5.13
2023-05-18T07:52:24.173Z,4.88
2023-05-18T07:54:51.029Z,5.38
2023-05-18T07:57:17.713Z,4.82
2023-05-18T07:59:44.390Z,3.72
2023-05-18T08:02:11.358Z,3.97
2023-05-18T08:04:38.367Z,3.47
2023-05-18T08:07:05.169Z,4.55
2023-05-18T08:09:32.108Z,4.05
2023-05-18T08:11:58.878Z,4.00
2023-05-18T08:14:25.713Z,4.32
2023-05-18T08:16:52.731Z,4.60
2023-05-18T08:19:19.652Z,5.00
2023-05-18T08:21:46.441Z,4.78
2023-05-18T08:24:13.361Z,4.80
2023-05-18T08:26:40.181Z,4.28
2023-05-18T08:29:10.177Z,5.30
2023-05-18T08:31:38.127Z,5.15
2023-05-18T08:34:06.092Z,5.13
2023-05-18T08:36:34.794Z,4.90
2023-05-18T08:39:02.954Z,4.75
2023-05-18T08:41:40.356Z,4.60
2023-05-18T08:44:12.228Z,4.28
2023-05-18T08:46:42.819Z,4.35
2023-05-18T08:49:10.745Z,4.50
2023-05-18T08:51:38.429Z,3.95
2023-05-18T08:54:08.422Z,4.38
2023-05-18T08:56:35.757Z,3.95
2023-05-18T08:59:08.450Z,3.40
2023-05-18T09:01:35.924Z,3.42
2023-05-18T09:04:03.299Z,3.13
2023-05-18T09:06:30.244Z,3.17
2023-05-18T09:08:58.315Z,3.15
2023-05-18T09:11:26.391Z,2.75
2023-05-18T09:13:54.408Z,2.72
2023-05-18T09:16:21.252Z,3.03
2023-05-18T09:18:48.190Z,2.80
2023-05-18T09:21:15.025Z,3.08
2023-05-18T09:23:42.335Z,2.42
2023-05-18T09:26:13.363Z,2.83
2023-05-18T09:28:43.875Z,2.60
2023-05-18T09:31:16.592Z,2.92
2023-05-18T09:33:45.022Z,2.47
2023-05-18T09:36:12.792Z,2.05
2023-05-18T09:38:45.838Z,2.67
2023-05-18T09:41:15.104Z,2.47
2023-05-18T09:43:43.743Z,2.83
2023-05-18T09:46:12.542Z,2.70
2023-05-18T09:48:44.488Z,2.50
2023-05-18T09:51:17.671Z,2.40
2023-05-18T09:53:57.987Z,2.60
2023-05-18T09:56:27.200Z,3.03
2023-05-18T09:58:54.313Z,2.25
2023-05-18T10:01:21.182Z,2.38
2023-05-18T10:03:49.820Z,2.30
2023-05-18T10:06:21.343Z,2.67
2023-05-18T10:08:48.487Z,2.10
2023-05-18T10:11:19.764Z,2.20
2023-05-18T10:13:47.070Z,2.63
2023-05-18T10:16:15.826Z,2.42
2023-05-18T10:18:43.385Z,2.60
2023-05-18T10:21:12.658Z,2.33
2023-05-18T10:23:40.989Z,2.33
2023-05-18T10:26:10.057Z,2.72
2023-05-18T10:28:47.508Z,2.58
2023-05-18T10:31:16.418Z,2.50
2023-05-18T10:33:44.451Z,2.33
2023-05-18T10:36:12.073Z,2.42
2023-05-18T10:38:43.517Z,2.15
2023-05-18T10:41:12.288Z,2.30
2023-05-18T10:43:41.459Z,2.22
2023-05-18T10:46:09.520Z,2.08
2023-05-18T10:48:39.700Z,2.17
2023-05-18T10:51:08.206Z,2.47
2023-05-18T10:53:36.663Z,2.20
2023-05-18T10:56:03.955Z,2.17
2023-05-18T10:58:32.710Z,2.40
2023-05-18T11:01:01.984Z,2.38
2023-05-18T11:03:29.039Z,2.13
2023-05-18T11:06:12.981Z,2.40
2023-05-18T11:08:47.302Z,2.13
2023-05-18T11:11:16.469Z,2.20
2023-05-18T11:13:48.730Z,2.63
2023-05-18T11:16:16.886Z,2.38
2023-05-18T11:18:49.444Z,2.53
2023-05-18T11:21:32.587Z,2.22
2023-05-18T11:24:18.704Z,2.80
2023-05-18T11:26:53.522Z,2.60
2023-05-18T11:29:24.598Z,3.25
2023-05-18T11:31:55.806Z,2.90
2023-05-18T11:34:40.079Z,3.05
2023-05-18T11:37:10.232Z,2.60
2023-05-18T11:39:44.783Z,2.53
2023-05-18T11:42:20.416Z,2.67
2023-05-18T11:44:56.699Z,2.72
2023-05-18T11:47:31.912Z,2.58
2023-05-18T11:52:26.078Z,2.40
2023-05-18T11:55:00.450Z,2.72
2023-05-18T11:57:36.346Z,2.63
2023-05-18T12:00:12.943Z,2.55
2023-05-18T12:02:43.846Z,2.70
2023-05-18T12:05:11.576Z,2.00
2023-05-18T12:07:39.847Z,2.47
2023-05-18T12:10:17.191Z,2.78
2023-05-18T12:12:47.554Z,2.85
2023-05-18T12:15:16.563Z,2.92
2023-05-18T12:17:45.934Z,2.60
2023-05-18T12:20:20.065Z,2.85
2023-05-18T12:22:53.148Z,2.40
2023-05-18T12:25:24.215Z,2.20
2023-05-18T12:27:52.637Z,2.22
2023-05-18T12:30:24.326Z,2.28
2023-05-18T12:32:54.263Z,2.53
2023-05-18T12:35:29.266Z,2.72
2023-05-18T12:38:00.187Z,2.60
2023-05-18T12:40:27.915Z,2.72
2023-05-18T12:42:59.755Z,3.10
2023-05-18T12:45:28.208Z,2.90
2023-05-18T12:47:56.242Z,2.70
2023-05-18T12:50:25.590Z,2.58
2023-05-18T12:52:52.883Z,2.83
2023-05-18T12:55:25.159Z,2.33
2023-05-18T12:58:06.221Z,2.70
2023-05-18T13:00:37.590Z,2.45
2023-05-18T13:03:11.055Z,2.53
2023-05-18T13:05:42.383Z,2.95
2023-05-18T13:08:09.490Z,2.33
2023-05-18T13:10:36.230Z,2.25
2023-05-18T13:13:03.880Z,2.03
2023-05-18T13:15:37.592Z,2.10
2023-05-18T13:18:11.978Z,1.98
2023-05-18T13:20:51.058Z,2.10
2023-05-18T13:23:26.694Z,2.38
2023-05-18T13:25:54.365Z,2.13
2023-05-18T13:28:22.951Z,1.83
2023-05-18T13:30:50.478Z,2.28
2023-05-18T13:33:19.083Z,2.22
2023-05-18T13:35:46.335Z,2.97
2023-05-18T13:38:14.411Z,1.85
2023-05-18T13:40:42.128Z,1.73
2023-05-18T13:43:10.971Z,2.10
2023-05-18T13:45:39.761Z,2.00
2023-05-18T13:48:09.536Z,2.33
2023-05-18T13:50:37.069Z,2.70
2023-05-18T13:53:04.030Z,2.33
2023-05-18T13:55:31.068Z,2.20
2023-05-18T13:57:58.112Z,1.98
2023-05-18T14:00:25.185Z,1.90
2023-05-18T14:02:53.240Z,2.20
2023-05-18T14:05:20.266Z,1.50
2023-05-18T14:07:47.074Z,2.20
2023-05-18T14:10:13.992Z,2.30
2023-05-18T14:12:42.643Z,1.75
2023-05-18T14:15:10.988Z,2.10
2023-05-18T14:17:37.912Z,1.70
2023-05-18T14:20:05.751Z,2.10
2023-05-18T14:22:32.826Z,1.70
2023-05-18T14:25:00.954Z,1.92
2023-05-18T14:27:28.749Z,1.73
2023-05-18T14:29:56.012Z,1.33
2023-05-18T14:32:23.117Z,1.75
2023-05-18T14:34:55.990Z,1.60
2023-05-18T14:37:22.800Z,1.90
2023-05-18T14:39:49.658Z,1.98
2023-05-18T14:42:16.468Z,1.92
2023-05-18T14:44:43.235Z,1.80
2023-05-18T14:47:10.810Z,1.70
2023-05-18T14:49:37.872Z,1.95
2023-05-18T14:52:05.055Z,1.70
2023-05-18T14:54:31.857Z,1.70
2023-05-18T14:56:59.703Z,1.88
2023-05-18T14:59:26.516Z,2.63
2023-05-18T15:01:53.385Z,2.03
2023-05-18T15:04:21.764Z,3.22
2023-05-18T15:06:49.453Z,2.15
2023-05-18T15:09:16.316Z,2.40
2023-05-18T15:11:43.123Z,1.88
2023-05-18T15:14:09.965Z,1.75
2023-05-18T15:16:36.823Z,1.80
2023-05-18T15:19:05.149Z,1.80
2023-05-18T15:21:31.991Z,1.80
2023-05-18T15:23:58.858Z,1.50
2023-05-18T15:26:26.145Z,1.65
2023-05-18T15:28:52.976Z,1.42
2023-05-18T15:31:19.878Z,1.63
2023-05-18T15:33:47.006Z,1.70
2023-05-18T15:36:13.968Z,1.92
2023-05-18T15:38:41.282Z,1.70
2023-05-18T15:41:08.064Z,1.92
2023-05-18T15:43:36.680Z,1.83
2023-05-18T15:46:04.340Z,1.75
2023-05-18T15:48:31.139Z,1.70
2023-05-18T15:50:57.907Z,1.88
2023-05-18T15:53:24.678Z,1.80
2023-05-18T15:55:57.477Z,1.80
2023-05-18T15:58:26.721Z,1.60
2023-05-18T16:00:53.954Z,1.70
2023-05-18T16:03:21.235Z,1.75
2023-05-18T16:05:48.308Z,1.70
2023-05-18T16:08:15.090Z,1.40
2023-05-18T16:10:41.884Z,1.40
2023-05-18T16:13:08.764Z,1.60
2023-05-18T16:15:36.025Z,2.15
2023-05-18T16:18:03.154Z,1.38
2023-05-18T16:20:30.703Z,1.40
2023-05-18T16:22:58.368Z,1.20
2023-05-18T16:25:26.312Z,1.40
2023-05-18T16:27:53.061Z,1.05
2023-05-18T16:30:19.837Z,1.00
2023-05-18T16:32:46.720Z,1.00
2023-05-18T16:35:13.511Z,1.00
2023-05-18T16:37:40.233Z,0.95
2023-05-18T16:40:08.279Z,1.00
2023-05-18T16:42:35.754Z,1.10
2023-05-18T16:45:03.053Z,1.10
2023-05-18T16:47:32.322Z,1.50
2023-05-18T16:49:59.954Z,1.25
2023-05-18T16:52:26.937Z,1.10
2023-05-18T16:54:53.985Z,1.42
2023-05-18T16:57:21.158Z,1.35
2023-05-18T16:59:48.185Z,1.00
2023-05-18T17:02:15.953Z,1.15
2023-05-18T17:04:44.711Z,1.30
2023-05-18T17:07:12.524Z,1.20
2023-05-18T17:09:41.577Z,1.10
2023-05-18T17:12:10.331Z,1.42
2023-05-18T17:14:37.729Z,1.13
2023-05-18T17:17:05.780Z,1.08
2023-05-18T17:19:34.858Z,1.35
2023-05-18T17:22:02.526Z,1.50
2023-05-18T17:24:29.251Z,1.40
2023-05-18T17:26:56.244Z,1.40
2023-05-18T17:29:23.041Z,1.10
2023-05-18T17:31:49.824Z,1.38
2023-05-18T17:34:16.900Z,1.40
2023-05-18T17:36:44.723Z,1.33
2023-05-18T17:39:12.385Z,1.75
2023-05-18T17:41:39.217Z,1.80
2023-05-18T17:44:06.242Z,1.80
2023-05-18T17:46:33.156Z,1.42
2023-05-18T17:49:02.184Z,1.27
2023-05-18T17:51:28.939Z,0.90
2023-05-18T17:53:56.505Z,1.08
2023-05-18T17:56:24.785Z,1.00
2023-05-18T17:58:53.295Z,1.20
2023-05-18T18:01:20.588Z,0.90
2023-05-18T18:03:48.680Z,1.02
2023-05-18T18:06:17.715Z,1.15
2023-05-18T18:08:44.986Z,1.00
2023-05-18T18:11:11.918Z,1.02
2023-05-18T18:13:38.681Z,1.40
2023-05-18T18:16:05.926Z,1.40
2023-05-18T18:18:33.252Z,1.40
2023-05-18T18:20:59.994Z,1.42
2023-05-18T18:23:26.780Z,1.20
2023-05-18T18:25:53.774Z,1.33
2023-05-18T18:28:20.848Z,1.33
2023-05-18T18:30:47.664Z,1.17
2023-05-18T18:33:14.808Z,1.70
2023-05-18T18:35:43.076Z,1.10
2023-05-18T18:38:10.000Z,1.38
2023-05-18T18:40:36.805Z,1.30
2023-05-18T18:43:03.542Z,1.23
2023-05-18T18:45:31.895Z,1.40
2023-05-18T18:47:59.294Z,1.35
2023-05-18T18:50:26.758Z,1.40
2023-05-18T18:52:53.825Z,1.60
2023-05-18T18:55:21.420Z,1.50
2023-05-18T18:57:48.183Z,2.53
2023-05-18T19:00:15.110Z,1.58
2023-05-18T19:02:41.986Z,1.70
2023-05-18T19:05:09.994Z,1.60
2023-05-18T19:07:36.811Z,1.70
2023-05-18T19:10:04.726Z,1.25
2023-05-18T19:12:33.140Z,1.63
2023-05-18T19:14:59.899Z,1.42
2023-05-18T19:17:27.064Z,1.70
2023-05-18T19:19:54.309Z,1.92
2023-05-18T19:22:21.346Z,1.80
2023-05-18T19:24:48.399Z,1.60
2023-05-18T19:27:15.285Z,1.80
2023-05-18T19:29:42.120Z,1.60
2023-05-18T19:32:09.291Z,1.73
2023-05-18T19:34:36.307Z,2.30
2023-05-18T19:37:03.107Z,2.28
2023-05-18T19:39:30.308Z,1.90
2023-05-18T19:41:57.172Z,1.80
2023-05-18T19:44:23.985Z,1.80
2023-05-18T19:46:51.360Z,1.83
2023-05-18T19:49:18.249Z,1.83
2023-05-18T19:51:45.063Z,2.00
2023-05-18T19:54:12.869Z,1.77
2023-05-18T19:56:39.768Z,2.05
2023-05-18T19:59:06.619Z,1.60
2023-05-18T20:01:34.124Z,1.85
2023-05-18T20:04:01.748Z,1.65
2023-05-18T20:06:29.835Z,1.60
2023-05-18T20:08:56.843Z,1.90
2023-05-18T20:11:23.979Z,1.85
2023-05-18T20:13:50.809Z,1.40
2023-05-18T20:16:18.675Z,1.80
2023-05-18T20:18:47.122Z,1.52
2023-05-18T20:21:14.186Z,1.83
2023-05-18T20:23:41.033Z,1.90
2023-05-18T20:26:07.854Z,1.83
2023-05-18T20:28:35.665Z,2.20
2023-05-18T20:31:02.560Z,1.95
2023-05-18T20:33:30.279Z,1.63
2023-05-18T20:35:57.113Z,2.80
2023-05-18T20:38:25.943Z,2.10
2023-05-18T20:40:53.646Z,2.28
2023-05-18T20:43:21.383Z,2.22
2023-05-18T20:45:49.535Z,2.30
2023-05-18T20:48:24.436Z,2.22
2023-05-18T20:50:52.444Z,2.25
2023-05-18T20:53:19.453Z,2.15
2023-05-18T20:55:47.585Z,2.22
2023-05-18T20:58:15.356Z,1.88
2023-05-18T21:00:42.196Z,2.33
2023-05-18T21:03:09.021Z,2.22
2023-05-18T21:05:36.110Z,2.22
2023-05-18T21:08:03.442Z,2.30
2023-05-18T21:10:32.022Z,3.03
2023-05-18T21:12:59.390Z,2.90
2023-05-18T21:15:26.491Z,3.22
2023-05-18T21:17:54.893Z,3.22
2023-05-18T21:20:21.957Z,3.05
2023-05-18T21:22:48.767Z,3.28
2023-05-18T21:25:17.726Z,2.88
2023-05-18T21:27:44.735Z,2.97
2023-05-18T21:30:13.011Z,2.78
2023-05-18T21:32:40.851Z,2.80
2023-05-18T21:35:07.876Z,2.88
2023-05-18T21:37:34.739Z,3.30
2023-05-18T21:40:01.508Z,3.22
2023-05-18T21:42:28.470Z,3.00
2023-05-18T21:44:55.194Z,2.72
2023-05-18T21:47:22.039Z,3.88
2023-05-18T21:49:48.901Z,3.20
2023-05-18T21:52:15.731Z,3.13
2023-05-18T21:54:42.470Z,3.03
2023-05-18T21:57:09.300Z,2.90
2023-05-18T21:59:36.082Z,3.20
2023-05-18T22:02:02.847Z,3.40
2023-05-18T22:04:29.677Z,4.35
2023-05-18T22:06:56.430Z,4.03
2023-05-18T22:09:23.239Z,4.03
2023-05-18T22:11:49.982Z,3.55
2023-05-18T22:14:18.164Z,3.90
2023-05-18T22:16:45.173Z,3.65
2023-05-18T22:19:12.129Z,3.47
2023-05-18T22:21:38.987Z,3.70
2023-05-18T22:24:06.041Z,3.53
2023-05-18T22:26:32.860Z,3.60
2023-05-18T22:28:59.678Z,3.50
2023-05-18T22:31:26.441Z,3.72
2023-05-18T22:33:54.068Z,3.45
2023-05-18T22:36:21.855Z,3.45
2023-05-18T22:38:49.630Z,4.53
2023-05-18T22:41:17.480Z,3.22
2023-05-18T22:43:44.598Z,3.80
2023-05-18T22:46:11.854Z,3.65
2023-05-18T22:48:39.588Z,3.72
2023-05-18T22:51:06.966Z,3.65
2023-05-18T22:53:33.992Z,3.58
2023-05-18T22:56:01.107Z,3.50
2023-05-18T22:58:28.181Z,4.30
2023-05-18T23:00:54.846Z,3.80
2023-05-18T23:03:21.716Z,3.70
2023-05-18T23:05:48.535Z,3.33
2023-05-18T23:08:16.032Z,3.63
2023-05-18T23:10:44.324Z,4.10
2023-05-18T23:13:12.002Z,3.78
2023-05-18T23:15:41.539Z,3.88
2023-05-18T23:18:09.248Z,3.80
2023-05-18T23:20:36.327Z,5.00
2023-05-18T23:23:03.215Z,3.88
2023-05-18T23:25:30.251Z,3.80
2023-05-18T23:27:57.024Z,4.65
2023-05-18T23:30:23.768Z,4.53
2023-05-18T23:32:50.982Z,4.60
2023-05-18T23:35:18.301Z,4.55
2023-05-18T23:37:48.915Z,4.22
2023-05-18T23:40:18.375Z,5.03
2023-05-18T23:42:45.845Z,4.32
2023-05-18T23:45:13.263Z,4.82
2023-05-18T23:47:40.641Z,4.85
2023-05-18T23:50:08.195Z,5.07
2023-05-18T23:52:35.371Z,5.03
2023-05-18T23:55:04.242Z,5.18
2023-05-18T23:57:31.593Z,5.70
2023-05-18T23:59:58.917Z,4.93
